To NAV CANADA Home Page Login to a new session Search on AWWS site Disclaimer Vers la page française équivalente Tips FAQ What's new on the site To the Forecasts and Observations / NOTAM section To "File a Flight Plan" website Publications and other links Update of the User's profile FIC Telephone Numbers My Weather Data Folder Route Weather Data Regional Weather Data Local Weather Data To the Forecasts and Observations / NOTAM section
Request Generated 01/24/2022 at 22:36:07 UTC . Weather information available at that time is displayed.

METAR/TAF

OTTAWA/MACDONALD-CARTIER INTL/ON    

METAR CYOW 242200Z CCA 05006KT 5SM -SN OVC040 M14/M19 A2983 RMK SC8 SLP114=
METAR CYOW 242200Z 05006KT 5/8SM R07/P6000FT/U R32/P6000FT/U -SN OVC040 M14/M19 A2983 RMK SC8 SLP114=
METAR CYOW 242100Z 08006KT 6SM -SN OVC040 M15/M20 A2983 RMK SC8 SLP115=
SPECI CYOW 242030Z 07006KT 10SM -SN OVC040 M15/M20 A2983 RMK SC8 SLP115=
METAR CYOW 242000Z 07007KT 15SM BKN035 OVC080 M15/M20 A2983 RMK SC6AC2 SLP115=

TAF CYOW 242040Z 2421/2518 07006KT P6SM BKN040 OVC080 TEMPO
2421/2422 4SM -SN
FM242200 09006KT 6SM -SN FEW012 OVC040 TEMPO 2422/2503 2SM -SN
OVC012
FM250300 07006KT 2SM -SN BKN008 OVC015 TEMPO 2503/2507 4SM -SN
SCT008 OVC015
FM250700 06005KT 6SM -SN SCT007 BKN012
FM251100 03006KT 4SM -SN BKN015 OVC025
FM251600 02006KT P6SM BKN030
RMK NXT FCST BY 250000Z

OTTAWA/GATINEAU/QC    

SPECI CYND 242215Z 07007KT 6SM -SN OVC040 M16/M20 A2986 RMK SC8 SLP120=
METAR CYND 242200Z 07006KT 2 1/2SM -SN OVC038 M16/M20 A2986 RMK SC8 SLP120=
SPECI CYND 242149Z 07008KT 2 1/2SM -SN OVC038 M16/M20 A2985 RMK SC8 SLP118=
SPECI CYND 242117Z 08007KT 4SM -SN OVC039 M16/M21 A2986 RMK SC8 SLP120=
SPECI CYND 242110Z 08007KT 2 1/2SM -SN OVC038 M16/M21 A2986 RMK SC8 SLP120=
METAR CYND 242100Z 08006KT 12SM -SN OVC038 M16/M22 A2986 RMK SC8 SLP120=
SPECI CYND 242037Z 07007KT 12SM -SN OVC037 M16/M22 A2986 RMK SC8 SLP121=
METAR CYND 242000Z 08007KT 15SM OVC050 M16/M22 A2986 RMK SC8 SLP121=

TAF AMD CYND 242211Z 2422/2502 07006KT 6SM -SN OVC030 TEMPO
2422/2502 2SM -SHSN
RMK NXT FCST BY 250000Z=

MONTREAL/PIERRE-ELLIOTT-TRUDEAU INTL/QC    

METAR CYUL 242200Z 10007KT 15SM BKN085 OVC100 M13/M19 A2989 RMK AC6AC2 SLP128=
METAR CYUL 242100Z 06004KT 15SM OVC100 M13/M20 A2990 RMK AC8 SLP130=
METAR CYUL 242000Z 12003KT 060V150 15SM BKN090 OVC150 M13/M21 A2991 RMK AC5AS3 SLP133=

TAF CYUL 242040Z 2421/2518 10005KT P6SM SCT040 OVC090 TEMPO
2421/2424 5SM -SN OVC040
FM250000 04008KT P6SM SCT015 OVC040 TEMPO 2500/2502 2SM -SHSN
BKN015 OVC040
FM250200 04006KT 2SM -SN OVC008 TEMPO 2502/2506 4SM -SN OVC015
FM250600 03006KT 6SM -SN SCT008 BKN012
FM251700 03008KT 5SM -SN BKN015 OVC040
RMK NXT FCST BY 250000Z=

MONTREAL INTL (MIRABEL)/QC    

METAR CYMX 242200Z 05003KT 15SM OVC070 M14/M22 A2988 RMK AC8 SLP129=
METAR CYMX 242100Z 09003KT 25SM FEW070 BKN080 BKN140 M14/M23 A2988 RMK AC1AS5AS2 AC TR SLP128=
METAR CYMX 242000Z 00000KT 30SM BKN140 M15/M24 A2989 RMK AC7 SLP132=

TAF CYMX 241740Z 2418/2518 VRB03KT P6SM FEW020 SCT180 TEMPO
2418/2420 5SM -SN BKN020 OVC120 PROB30 2418/2420 2SM -SHSN
OVC012
FM242000 08005KT P6SM OVC040 TEMPO 2420/2424 4SM -SN
FM250000 04005KT 6SM -SN SCT015 OVC040 TEMPO 2500/2503 2SM -SN
BKN015 OVC040
FM250300 05005KT 4SM -SN BKN020 OVC040 TEMPO 2503/2508 2SM -SN
BKN008 OVC020
FM250800 04005KT P6SM -SN FEW008 BKN015
FM251200 04005KT P6SM BKN025
FM251600 06005KT 5SM -SN BKN020 OVC030
RMK NXT FCST BY 250000Z

KINGSTON/ON    

SPECI CYGK 242218Z 10010KT 1SM -SN OVC013 M09/M11 A2979 RMK SN5SC3 SLP100=
METAR CYGK 242200Z 10010KT 1 1/2SM -SN OVC013 M09/M11 A2979 RMK SN4SC4 /S01/ SLP100=
SPECI CYGK 242145Z 11010KT 1SM -SN OVC013 M09/M11 A2980 RMK SN3SC5 SLP101=
SPECI CYGK 242134Z 10009KT 2SM -SN OVC014 M09/M11 A2980 RMK SC8 SLP102=
METAR CYGK 242100Z 12011KT 2SM -SN OVC020 M08/M12 A2981 RMK SC8 SLP103=
SPECI CYGK 242029Z 13011KT 2 1/2SM -SN FEW020 OVC033 M08/M13 A2981 RMK SC2SC6 SLP104=
METAR CYGK 242000Z 12011KT 15SM -SN FEW030 OVC050 M08/M15 A2981 RMK SC2SC6 SLP103=

TAF AMD CYGK 242219Z 2422/2504 11010KT 1 1/2SM -SN OVC010 TEMPO
2422/2504 3SM -SN OVC025
RMK NXT FCST BY 250200Z=

PETAWAWA/ON    

METAR CYWA 242200Z 13008KT 2 1/2SM -SN SCT005 OVC020 M14/M16 A2975 RMK ST4SC4 DA-2928FT SLP090=
METAR CYWA 242000Z 13006KT 4SM -SN OVC022 M14/M19 A2975 RMK SC8 DA-2932FT PCPN VRY LGT SLP090=
METAR CYWA 241700Z 15006KT 1SM -SN SCT006 OVC020 M18/M21 A2981 RMK ST3SC5 DA-3586FT LWR VIS N SLP110=
METAR CYWA 242100Z 12006KT 3SM -SN SCT005 OVC020 M13/M18 A2975 RMK ST3SC5 DA-2876FT SLP091=

TAF CYWA 241740Z 2418/2518 14007KT 1SM -SN SCT006 OVC020 TEMPO
2418/2505 4SM -SN SCT020 OVC040
FM250500 13005KT 3SM -SN OVC012
BECMG 2512/2514 32010KT
FM251500 32010KT P6SM BKN020
RMK NXT FCST BY 250000Z
Your time UTC time
Weather data provided by Environment Canada and NAV CANADA